Time;durP1;ratioP1;P1;durP2;ratioP2;P2;SDS_P1;SDS_P2;PMS_P1;PMS_P2;Temp;Humidity;BMP_temperature;BMP_pressure;BME280_temperature;BME280_humidity;BME280_pressure;Samples;Min_cycle;Max_cycle;Signal;HPM_P1;HPM_P2
2022/02/04 00:04:30;;;;;;;6.68;1.15;;;;;;;;;;5074172;28;20391;-76
2022/02/04 00:21:07;;;;;;;8.25;1.90;;;;;;;;;;5073958;28;20078;-77
2022/02/04 00:23:35;;;;;;;5.65;0.90;;;;;;;;;;5073021;28;20469;-77
2022/02/04 00:26:16;;;;;;;9.60;1.35;;;;;;;;;;5073942;28;20044;-75
2022/02/04 00:29:13;;;;;;;6.35;1.55;;;;;;;;;;5072731;28;20024;-76
2022/02/04 00:31:49;;;;;;;5.47;1.40;;;;;;;;;;5072843;28;20028;-76
2022/02/04 00:34:19;;;;;;;7.70;1.50;;;;;;;;;;5073947;28;20396;-75
2022/02/04 00:36:55;;;;;;;8.07;1.80;;;;;;;;;;5072605;28;20025;-74
2022/02/04 00:39:27;;;;;;;6.22;1.05;;;;;;;;;;5073608;28;20388;-75
2022/02/04 00:41:59;;;;;;;10.07;1.55;;;;;;;;;;5073727;28;20111;-76
2022/02/04 00:44:29;;;;;;;12.95;2.00;;;;;;;;;;5072274;28;20056;-76
2022/02/04 00:47:12;;;;;;;16.70;2.65;;;;;;;;;;5073569;28;20104;-76
2022/02/04 00:52:36;;;;;;;9.75;2.10;;;;;;;;;;5073615;28;20103;-76
2022/02/04 01:13:09;;;;;;;5.60;1.60;;;;;;;;;;5073005;28;20043;-76
2022/02/04 01:25:56;;;;;;;5.18;1.42;;;;;;;;;;5072962;28;20034;-75
2022/02/04 01:28:25;;;;;;;7.38;1.30;;;;;;;;;;5071731;28;20207;-75
2022/02/04 01:30:53;;;;;;;6.35;1.27;;;;;;;;;;5071608;28;20428;-75
2022/02/04 01:33:21;;;;;;;5.35;1.35;;;;;;;;;;5072839;28;20024;-75
2022/02/04 01:35:48;;;;;;;4.65;1.15;;;;;;;;;;5072726;28;20058;-75
2022/02/04 01:38:15;;;;;;;6.63;1.63;;;;;;;;;;5072901;28;20032;-77
2022/02/04 01:40:42;;;;;;;4.25;1.00;;;;;;;;;;5072761;28;20118;-76
2022/02/04 01:43:10;;;;;;;7.03;1.35;;;;;;;;;;5072902;28;20029;-76
2022/02/04 01:45:37;;;;;;;4.88;1.33;;;;;;;;;;5072808;28;20389;-75
2022/02/04 01:48:04;;;;;;;10.75;2.05;;;;;;;;;;5072580;28;20050;-76
2022/02/04 01:50:33;;;;;;;7.57;1.40;;;;;;;;;;5072793;28;20020;-75
2022/02/04 01:53:01;;;;;;;5.90;1.40;;;;;;;;;;5072897;28;20017;-76
2022/02/04 01:55:28;;;;;;;8.18;1.55;;;;;;;;;;5072834;28;20045;-75
2022/02/04 01:57:55;;;;;;;10.50;2.17;;;;;;;;;;5072783;28;20526;-75
2022/02/04 02:00:22;;;;;;;10.90;1.85;;;;;;;;;;5072918;28;20027;-75
2022/02/04 02:02:51;;;;;;;10.80;2.05;;;;;;;;;;5072679;28;20073;-75
2022/02/04 02:05:18;;;;;;;9.15;1.77;;;;;;;;;;5072364;28;20071;-76
2022/02/04 02:07:47;;;;;;;12.20;2.03;;;;;;;;;;5072595;28;20049;-76
2022/02/04 02:10:17;;;;;;;9.30;1.95;;;;;;;;;;5071389;28;20480;-74
2022/02/04 02:44:55;;;;;;;8.77;2.03;;;;;;;;;;5076047;28;20405;-74
2022/02/04 02:58:23;;;;;;;4.93;1.10;;;;;;;;;;5075963;28;20166;-75
2022/02/04 03:00:57;;;;;;;5.32;1.17;;;;;;;;;;5076016;28;20028;-75
2022/02/04 03:03:28;;;;;;;7.75;1.55;;;;;;;;;;5074410;28;20455;-74
2022/02/04 03:05:56;;;;;;;7.00;1.42;;;;;;;;;;5074433;28;20127;-74
2022/02/04 03:08:23;;;;;;;9.55;2.40;;;;;;;;;;5074479;28;20035;-75
2022/02/04 03:10:53;;;;;;;12.40;2.70;;;;;;;;;;5075567;28;20017;-74
2022/02/04 03:13:20;;;;;;;;;;;;;;;;;;5074572;28;20090;-74
2022/02/04 03:15:55;;;;;;;17.42;2.85;;;;;;;;;;5074184;28;19940;-74
2022/02/04 03:18:24;;;;;;;12.90;2.97;;;;;;;;;;5074080;28;20440;-74
2022/02/04 03:20:55;;;;;;;10.27;2.30;;;;;;;;;;5075336;28;20381;-75
2022/02/04 03:23:24;;;;;;;13.70;2.50;;;;;;;;;;5073953;28;20032;-75
2022/02/04 03:25:57;;;;;;;13.88;3.20;;;;;;;;;;5075240;28;20025;-75
2022/02/04 03:28:29;;;;;;;11.57;2.45;;;;;;;;;;5073666;28;20512;-76
2022/02/04 03:30:58;;;;;;;14.13;2.50;;;;;;;;;;5075085;28;20020;-76
2022/02/04 03:33:28;;;;;;;9.85;2.78;;;;;;;;;;5075111;28;20534;-76
2022/02/04 03:35:55;;;;;;;12.75;2.50;;;;;;;;;;5075277;28;20016;-76
2022/02/04 03:38:23;;;;;;;19.63;4.05;;;;;;;;;;5075073;28;20384;-74
2022/02/04 03:40:50;;;;;;;17.75;4.57;;;;;;;;;;5073825;28;20028;-75
2022/02/04 03:43:17;;;;;;;19.17;5.15;;;;;;;;;;5074949;28;20029;-75
2022/02/04 03:45:44;;;;;;;12.43;2.80;;;;;;;;;;5073665;28;20444;-76
2022/02/04 03:48:11;;;;;;;18.20;3.22;;;;;;;;;;5073480;28;20541;-74
2022/02/04 03:50:38;;;;;;;22.30;5.57;;;;;;;;;;5074804;28;20021;-75
2022/02/04 03:53:11;;;;;;;13.50;4.07;;;;;;;;;;5074723;28;20047;-74
2022/02/04 03:55:39;;;;;;;21.88;3.65;;;;;;;;;;5074783;28;20016;-73
2022/02/04 03:58:06;;;;;;;14.23;3.80;;;;;;;;;;5074647;28;20025;-74
2022/02/04 04:00:33;;;;;;;16.58;3.13;;;;;;;;;;5074576;28;20048;-74
2022/02/04 04:03:00;;;;;;;13.63;3.95;;;;;;;;;;5074563;28;20419;-74
2022/02/04 04:05:28;;;;;;;16.00;4.28;;;;;;;;;;5074309;28;20488;-75
2022/02/04 04:07:56;;;;;;;18.75;4.75;;;;;;;;;;5073085;28;20082;-75
2022/02/04 04:10:26;;;;;;;19.85;4.10;;;;;;;;;;5073049;28;20108;-76
2022/02/04 04:12:58;;;;;;;12.70;2.13;;;;;;;;;;5074440;28;20016;-76
2022/02/04 04:15:25;;;;;;;16.50;3.55;;;;;;;;;;5074239;28;20028;-76
2022/02/04 04:17:52;;;;;;;14.45;3.00;;;;;;;;;;5074359;28;20024;-76
2022/02/04 04:20:21;;;;;;;18.88;3.38;;;;;;;;;;5074271;28;20013;-74
2022/02/04 04:22:49;;;;;;;16.83;3.65;;;;;;;;;;5074043;28;20082;-74
2022/02/04 04:25:16;;;;;;;15.93;3.17;;;;;;;;;;5072397;28;20032;-75
2022/02/04 04:27:44;;;;;;;16.40;2.92;;;;;;;;;;5073897;28;20028;-75
2022/02/04 04:30:13;;;;;;;16.80;2.67;;;;;;;;;;5074579;28;20017;-75
2022/02/04 04:32:40;;;;;;;12.18;2.95;;;;;;;;;;5072650;28;20024;-75
2022/02/04 04:35:11;;;;;;;14.75;5.05;;;;;;;;;;5072447;28;20017;-75
2022/02/04 04:37:52;;;;;;;16.15;5.50;;;;;;;;;;5072689;28;20017;-74
2022/02/04 04:40:34;;;;;;;12.40;2.70;;;;;;;;;;5073859;28;20050;-74
2022/02/04 05:27:43;;;;;;;10.43;1.67;;;;;;;;;;5073216;28;20032;-75
2022/02/04 05:29:44;;;;;;;9.13;1.52;;;;;;;;;;5072970;28;20032;-72
2022/02/04 05:32:11;;;;;;;7.80;1.48;;;;;;;;;;5073037;28;20048;-75
2022/02/04 05:34:39;;;;;;;10.18;1.77;;;;;;;;;;5071836;28;20111;-73
2022/02/04 05:37:08;;;;;;;9.65;1.50;;;;;;;;;;5073044;28;20033;-73
2022/02/04 05:40:00;;;;;;;14.85;2.28;;;;;;;;;;5073199;28;20539;-73
2022/02/04 05:42:27;;;;;;;7.07;1.50;;;;;;;;;;5072939;28;20024;-74
2022/02/04 05:45:02;;;;;;;8.52;2.00;;;;;;;;;;5073840;28;20020;-74
2022/02/04 05:47:31;;;;;;;8.20;1.52;;;;;;;;;;5073495;28;20029;-73
2022/02/04 05:52:53;;;;;;;8.35;1.63;;;;;;;;;;5073105;28;20121;-74
2022/02/04 06:03:36;;;;;;;12.15;2.08;;;;;;;;;;5072768;28;19904;-73
2022/02/04 06:06:49;;;;;;;11.80;1.50;;;;;;;;;;5076811;28;20106;-73
2022/02/04 06:14:48;;;;;;;8.02;1.50;;;;;;;;;;5076619;28;20017;-75
2022/02/04 06:22:48;;;;;;;10.57;1.63;;;;;;;;;;5076714;28;20105;-72
2022/02/04 06:25:16;;;;;;;7.88;1.45;;;;;;;;;;5076406;28;20029;-73
2022/02/04 06:27:43;;;;;;;8.15;1.27;;;;;;;;;;5076380;28;20028;-73
2022/02/04 06:30:11;;;;;;;11.40;2.00;;;;;;;;;;5076236;28;20025;-73
2022/02/04 06:32:38;;;;;;;12.13;2.08;;;;;;;;;;5076433;28;20055;-74
2022/02/04 06:35:07;;;;;;;13.02;1.95;;;;;;;;;;5074797;28;20477;-74
2022/02/04 06:37:34;;;;;;;10.40;2.13;;;;;;;;;;5076173;28;20070;-75
2022/02/04 06:40:02;;;;;;;8.77;2.30;;;;;;;;;;5076026;28;20023;-73
2022/02/04 06:42:29;;;;;;;8.40;1.45;;;;;;;;;;5074662;28;20052;-73
2022/02/04 06:45:00;;;;;;;9.80;1.90;;;;;;;;;;5075965;28;20440;-73
2022/02/04 06:47:28;;;;;;;9.70;1.40;;;;;;;;;;5076211;28;20025;-73
2022/02/04 06:49:55;;;;;;;10.30;1.80;;;;;;;;;;5075893;28;20016;-74
2022/02/04 06:52:22;;;;;;;9.10;1.40;;;;;;;;;;5075900;28;20111;-74
2022/02/04 06:54:49;;;;;;;8.95;1.63;;;;;;;;;;5074555;28;20048;-74
2022/02/04 06:57:17;;;;;;;9.63;2.28;;;;;;;;;;5074536;28;20024;-74
2022/02/04 06:59:46;;;;;;;9.10;2.05;;;;;;;;;;5075676;28;20024;-74
2022/02/04 07:02:13;;;;;;;9.20;1.42;;;;;;;;;;5074361;28;20080;-73
2022/02/04 07:04:41;;;;;;;9.07;1.85;;;;;;;;;;5075250;28;20046;-73
2022/02/04 07:07:08;;;;;;;11.68;1.98;;;;;;;;;;5075642;28;20122;-74
2022/02/04 07:12:33;;;;;;;9.15;1.80;;;;;;;;;;5075578;28;20153;-73
2022/02/04 07:17:37;;;;;;;7.95;1.70;;;;;;;;;;5075426;28;20028;-73
2022/02/04 07:20:05;;;;;;;7.65;1.77;;;;;;;;;;5075274;28;20021;-73
2022/02/04 07:22:35;;;;;;;14.15;1.73;;;;;;;;;;5074008;28;20036;-74
2022/02/04 07:25:05;;;;;;;9.63;1.35;;;;;;;;;;5074046;28;20029;-73
2022/02/04 07:27:34;;;;;;;11.18;1.70;;;;;;;;;;5075265;28;20086;-74
2022/02/04 07:30:02;;;;;;;8.18;1.70;;;;;;;;;;5074981;28;20021;-73
2022/02/04 07:43:04;;;;;;;9.80;1.40;;;;;;;;;;5075250;28;20473;-73
2022/02/04 07:45:33;;;;;;;7.72;1.58;;;;;;;;;;5074828;28;20441;-73
2022/02/04 07:48:00;;;;;;;6.97;1.20;;;;;;;;;;5074698;28;20017;-73
2022/02/04 07:50:27;;;;;;;12.50;2.17;;;;;;;;;;5074710;28;20043;-72
2022/02/04 07:52:55;;;;;;;6.32;1.33;;;;;;;;;;5074807;28;20031;-72
2022/02/04 07:55:22;;;;;;;7.68;1.20;;;;;;;;;;5073366;28;20493;-72
2022/02/04 07:57:50;;;;;;;5.72;1.30;;;;;;;;;;5074664;28;20385;-72
2022/02/04 08:00:18;;;;;;;8.35;1.50;;;;;;;;;;5074505;28;20539;-72
2022/02/04 08:02:46;;;;;;;11.85;2.30;;;;;;;;;;5073072;28;20024;-73
2022/02/04 08:05:16;;;;;;;9.82;2.15;;;;;;;;;;5074215;28;20044;-73
2022/02/04 08:07:53;;;;;;;;;;;;;;;;;;5073536;28;20028;-73
2022/02/04 08:18:08;;;;;;;;;;;;;;;;;;5074591;28;19916;-72
2022/02/04 08:20:57;;;;;;;;;;;;;;;;;;5074466;28;19934;-72
2022/02/04 08:49:29;;;;;;;;;;;;;;;;;;5074032;28;19916;-73
2022/02/04 08:54:48;;;;;;;;;;;;;;;;;;5074085;28;20003;-73
2022/02/04 08:57:29;;;;;;;;;;;;;;;;;;5072583;28;20101;-73
2022/02/04 09:02:41;;;;;;;;;;;;;;;;;;5073696;28;19911;-73
2022/02/04 09:05:12;;;;;;;;;;;;;;;;;;5072256;28;19998;-74
2022/02/04 09:07:49;;;;;;;;;;;;;;;;;;5072461;28;19904;-74
2022/02/04 09:10:20;;;;;;;;;;;;;;;;;;5072302;28;20381;-72
2022/02/04 09:23:11;;;;;;;;;;;;;;;;;;5073490;28;20005;-73
2022/02/04 09:25:38;;;;;;;;;;;;;;;;;;5073563;28;19905;-74
2022/02/04 09:28:04;;;;;;;;;;;;;;;;;;5072035;28;19904;-72
2022/02/04 09:30:31;;;;;;;;;;;;;;;;;;5073509;28;19904;-73
2022/02/04 09:32:57;;;;;;;;;;;;;;;;;;5073418;28;19915;-74
2022/02/04 09:35:23;;;;;;;;;;;;;;;;;;5073580;28;19995;-73
2022/02/04 09:37:50;;;;;;;;;;;;;;;;;;5071929;28;20311;-73
2022/02/04 09:40:18;;;;;;;;;;;;;;;;;;5071396;28;20284;-74
2022/02/04 09:42:44;;;;;;;;;;;;;;;;;;5072084;28;19904;-74
2022/02/04 09:45:12;;;;;;;;;;;;;;;;;;5073360;28;19904;-74
2022/02/04 09:47:41;;;;;;;;;;;;;;;;;;5072077;28;19904;-73
2022/02/04 09:50:09;;;;;;;;;;;;;;;;;;5073245;28;19947;-73
2022/02/04 10:17:07;;;;;;;;;;;;;;;;;;5073167;28;19904;-73
2022/02/04 10:22:12;;;;;;;;;;;;;;;;;;5073064;28;19904;-73
2022/02/04 10:24:38;;;;;;;;;;;;;;;;;;5073175;28;20254;-74
2022/02/04 10:27:05;;;;;;;;;;;;;;;;;;5073131;28;20270;-72
2022/02/04 10:29:31;;;;;;;;;;;;;;;;;;5073269;28;19908;-74
2022/02/04 10:31:58;;;;;;;;;;;;;;;;;;5071532;28;20288;-73
2022/02/04 10:34:26;;;;;;;;;;;;;;;;;;5073017;28;20274;-72
2022/02/04 10:37:00;;;;;;;;;;;;;;;;;;5072836;28;20329;-73
2022/02/04 10:39:31;;;;;;;;;;;;;;;;;;5072997;28;20337;-73
2022/02/04 10:41:57;;;;;;;;;;;;;;;;;;5071719;28;19908;-73
2022/02/04 10:44:26;;;;;;;;;;;;;;;;;;5073148;28;19904;-72
2022/02/04 10:47:01;;;;;;;;;;;;;;;;;;5072931;28;19912;-73
2022/02/04 10:49:46;;;;;;;;;;;;;;;;;;5072906;28;19909;-74
2022/02/04 10:55:37;;;;;;;;;;;;;;;;;;5076532;28;19946;-72
2022/02/04 11:00:51;;;;;;;;;;;;;;;;;;5076392;28;19904;-75
2022/02/04 11:03:14;;;;;;;;;;;;;;;;;;5076181;28;19993;-74
2022/02/04 11:05:50;;;;;;;;;;;;;;;;;;5075849;28;19913;-74
2022/02/04 11:08:26;;;;;;;;;;;;;;;;;;5074770;28;19965;-74
2022/02/04 11:33:47;;;;;;;;;;;;;;;;;;5075685;28;19910;-74
2022/02/04 11:35:41;;;;;;;;;;;;;;;;;;5072434;28;19951;-74
2022/02/04 11:52:09;;;;;;;;;;;;;;;;;;5075391;28;20010;-74
2022/02/04 11:54:45;;;;;;;;;;;;;;;;;;5073879;28;19908;-74
2022/02/04 11:57:13;;;;;;;;;;;;;;;;;;5075132;28;20301;-73
2022/02/04 11:59:39;;;;;;;;;;;;;;;;;;5075181;28;20388;-74
2022/02/04 12:02:06;;;;;;;;;;;;;;;;;;5074287;28;20280;-73
2022/02/04 12:04:32;;;;;;;;;;;;;;;;;;5074891;28;20268;-74
2022/02/04 12:06:59;;;;;;;;;;;;;;;;;;5075028;28;20281;-73
2022/02/04 12:09:25;;;;;;;;;;;;;;;;;;5074926;28;19916;-72
2022/02/04 12:11:51;;;;;;;;;;;;;;;;;;5074962;28;19904;-73
2022/02/04 12:14:18;;;;;;;;;;;;;;;;;;5074921;28;19904;-73
2022/02/04 12:16:44;;;;;;;;;;;;;;;;;;5074875;28;19904;-73
2022/02/04 12:19:11;;;;;;;;;;;;;;;;;;5074855;28;19904;-72
2022/02/04 12:21:37;;;;;;;;;;;;;;;;;;5074747;28;20270;-72
2022/02/04 12:24:04;;;;;;;;;;;;;;;;;;5073339;28;20250;-73
2022/02/04 12:26:33;;;;;;;;;;;;;;;;;;5074723;28;20250;-73
2022/02/04 12:29:02;;;;;;;;;;;;;;;;;;5074596;28;19909;-73
2022/02/04 12:31:30;;;;;;;;;;;;;;;;;;5074499;28;19953;-73
2022/02/04 12:33:56;;;;;;;;;;;;;;;;;;5074467;28;19916;-73
2022/02/04 12:36:23;;;;;;;;;;;;;;;;;;5074549;28;20272;-73
2022/02/04 12:38:50;;;;;;;;;;;;;;;;;;5074328;28;20353;-73
2022/02/04 12:41:16;;;;;;;;;;;;;;;;;;5074380;28;20345;-73
2022/02/04 12:43:43;;;;;;;;;;;;;;;;;;5074457;28;20258;-73
2022/02/04 12:46:09;;;;;;;;;;;;;;;;;;5074300;28;20314;-73
2022/02/04 12:48:36;;;;;;;;;;;;;;;;;;5074164;28;19916;-73
2022/02/04 12:51:03;;;;;;;;;;;;;;;;;;5074204;28;20254;-72
2022/02/04 12:53:31;;;;;;;;;;;;;;;;;;5074145;28;19904;-73
2022/02/04 12:56:22;;;;;;;;;;;;;;;;;;5074105;28;20330;-73
2022/02/04 13:09:56;;;;;;;;;;;;;;;;;;5073783;28;20023;-73
2022/02/04 13:12:22;;;;;;;;;;;;;;;;;;5073784;28;20381;-73
2022/02/04 13:14:49;;;;;;;;;;;;;;;;;;5073581;28;20320;-73
2022/02/04 13:17:15;;;;;;;;;;;;;;;;;;5073762;28;19908;-73
2022/02/04 13:19:42;;;;;;;;;;;;;;;;;;5073695;28;19943;-73
2022/02/04 13:22:08;;;;;;;;;;;;;;;;;;5073774;28;19905;-73
2022/02/04 13:24:35;;;;;;;;;;;;;;;;;;5072429;28;19912;-73
2022/02/04 13:27:01;;;;;;;;;;;;;;;;;;5073670;28;19904;-74
2022/02/04 13:29:27;;;;;;;;;;;;;;;;;;5073514;28;19909;-72
2022/02/04 13:31:54;;;;;;;;;;;;;;;;;;5073580;28;19905;-73
2022/02/04 13:34:26;;;;;;;;;;;;;;;;;;5072225;28;19904;-72
2022/02/04 13:37:00;;;;;;;;;;;;;;;;;;5073756;28;19905;-72
2022/02/04 13:47:06;;;;;;;;;;;;;;;;;;5073392;28;19940;-73
2022/02/04 13:52:12;;;;;;;;;;;;;;;;;;5073416;28;20287;-72
2022/02/04 13:57:21;;;;;;;;;;;;;;;;;;5073324;28;19904;-73
2022/02/04 13:59:57;;;;;;;;;;;;;;;;;;5073346;28;20327;-72
2022/02/04 14:02:26;;;;;;;;;;;;;;;;;;5073364;28;19983;-73
2022/02/04 14:04:53;;;;;;;;;;;;;;;;;;5071715;28;19912;-73
2022/02/04 14:07:23;;;;;;;;;;;;;;;;;;5073222;28;20313;-72
2022/02/04 14:09:57;;;;;;;;;;;;;;;;;;5073066;28;20330;-72
2022/02/04 14:12:24;;;;;;;;;;;;;;;;;;5073224;28;19911;-72
2022/02/04 14:14:50;;;;;;;;;;;;;;;;;;5071872;28;19905;-72
2022/02/04 14:17:17;;;;;;;;;;;;;;;;;;5073113;28;19908;-72
2022/02/04 14:19:43;;;;;;;;;;;;;;;;;;5071773;28;19904;-72
2022/02/04 14:22:11;;;;;;;;;;;;;;;;;;5073004;28;19911;-72
2022/02/04 14:24:38;;;;;;;;;;;;;;;;;;5071772;28;19905;-73
2022/02/04 14:27:05;;;;;;;;;;;;;;;;;;5077009;28;19906;-72
2022/02/04 14:29:40;;;;;;;;;;;;;;;;;;5076857;28;19908;-73
2022/02/04 14:32:33;;;;;;;;;;;;;;;;;;5076963;28;19936;-72
2022/02/04 14:35:07;;;;;;;;;;;;;;;;;;5076707;28;19931;-73
2022/02/04 14:37:52;;;;;;;;;;;;;;;;;;5076705;28;19988;-73
2022/02/04 15:02:00;;;;;;;;;;;;;;;;;;5076226;28;19904;-72
2022/02/04 15:04:45;;;;;;;;;;;;;;;;;;5076031;28;19961;-73
2022/02/04 15:07:12;;;;;;;;;;;;;;;;;;5076215;28;19904;-73
2022/02/04 15:09:47;;;;;;;;;;;;;;;;;;5076180;28;20396;-73
2022/02/04 15:12:13;;;;;;;;;;;;;;;;;;5076301;28;20258;-73
2022/02/04 15:14:40;;;;;;;;;;;;;;;;;;5076158;28;19951;-73
2022/02/04 15:17:06;;;;;;;;;;;;;;;;;;5074753;28;19911;-73
2022/02/04 15:19:34;;;;;;;;;;;;;;;;;;5076129;28;19995;-73
2022/02/04 15:22:03;;;;;;;;;;;;;;;;;;5076094;28;19995;-73
2022/02/04 15:24:29;;;;;;;;;;;;;;;;;;5074597;28;19952;-74
2022/02/04 15:26:55;;;;;;;;;;;;;;;;;;5075871;28;19999;-73
2022/02/04 15:29:22;;;;;;;;;;;;;;;;;;5075784;28;20026;-74
2022/02/04 15:31:53;;;;;;;;;;;;;;;;;;5075880;28;19943;-73
2022/02/04 15:34:21;;;;;;;;;;;;;;;;;;5075896;28;19904;-72
2022/02/04 15:36:48;;;;;;;;;;;;;;;;;;5075604;28;19987;-73
2022/02/04 15:39:15;;;;;;;;;;;;;;;;;;5075724;28;20280;-73
2022/02/04 15:41:41;;;;;;;;;;;;;;;;;;5075659;28;20375;-73
2022/02/04 15:44:17;;;;;;;;;;;;;;;;;;5075523;28;19905;-73
2022/02/04 15:47:01;;;;;;;;;;;;;;;;;;5075558;28;19905;-73
2022/02/04 15:55:24;;;;;;;;;;;;;;;;;;5075359;28;19904;-75
2022/02/04 15:57:33;;;;;;;;;;;;;;;;;;5071053;28;19904;-73
2022/02/04 16:00:26;;;;;;;;;;;;;;;;;;5075386;28;20327;-74
2022/02/04 16:05:30;;;;;;;;;;;;;;;;;;5074888;28;19948;-74
2022/02/04 16:07:57;;;;;;;;;;;;;;;;;;5075064;28;19908;-74
2022/02/04 16:10:32;;;;;;;;;;;;;;;;;;5073671;28;19913;-73
2022/02/04 16:13:11;;;;;;;;;;;;;;;;;;5075040;28;19908;-73
2022/02/04 16:15:53;;;;;;;;;;;;;;;;;;5075051;28;20277;-73
2022/02/04 16:18:24;;;;;;;;;;;;;;;;;;5074994;28;20277;-73
2022/02/04 16:21:14;;;;;;;;;;;;;;;;;;5074939;28;19904;-74
2022/02/04 16:26:46;;;;;;;;;;;;;;;;;;5074784;28;19940;-72
2022/02/04 16:29:09;;;;;;;;;;;;;;;;;;5074420;28;19915;-73
2022/02/04 16:31:36;;;;;;;;;;;;;;;;;;5074618;28;19905;-73
2022/02/04 16:34:08;;;;;;;;;;;;;;;;;;5074543;28;19911;-73
2022/02/04 16:36:37;;;;;;;;;;;;;;;;;;5074575;28;19922;-74
2022/02/04 16:39:04;;;;;;;;;;;;;;;;;;5074572;28;20012;-74
2022/02/04 16:41:43;;;;;;;;;;;;;;;;;;5074587;28;19904;-73
2022/02/04 16:44:09;;;;;;;;;;;;;;;;;;5074430;28;19950;-73
2022/02/04 16:46:36;;;;;;;;;;;;;;;;;;5073008;28;19971;-74
2022/02/04 16:49:02;;;;;;;;;;;;;;;;;;5073869;28;19914;-74
2022/02/04 16:51:29;;;;;;;;;;;;;;;;;;5074243;28;19912;-73
2022/02/04 16:53:55;;;;;;;;;;;;;;;;;;5074283;28;20325;-73
2022/02/04 16:56:22;;;;;;;;;;;;;;;;;;5074184;28;20349;-74
2022/02/04 16:58:48;;;;;;;;;;;;;;;;;;5074134;28;19915;-73
2022/02/04 17:01:19;;;;;;;;;;;;;;;;;;5074373;28;19909;-73
2022/02/04 17:03:49;;;;;;;;;;;;;;;;;;5074148;28;19904;-73
2022/02/04 17:06:15;;;;;;;;;;;;;;;;;;5072650;28;19917;-73
2022/02/04 17:08:53;;;;;;;;;;;;;;;;;;5074137;28;19912;-72
2022/02/04 17:11:22;;;;;;;;;;;;;;;;;;5074019;28;20379;-73
2022/02/04 17:13:49;;;;;;;;;;;;;;;;;;5072616;28;20300;-73
2022/02/04 17:16:16;;;;;;;;;;;;;;;;;;5074013;28;20014;-73
2022/02/04 17:18:44;;;;;;;;;;;;;;;;;;5073947;28;19983;-73
2022/02/04 17:21:10;;;;;;;;;;;;;;;;;;5073979;28;19904;-73
2022/02/04 17:23:45;;;;;;;;;;;;;;;;;;5072557;28;19909;-73
2022/02/04 17:26:15;;;;;;;;;;;;;;;;;;5073994;28;20323;-72
2022/02/04 17:28:41;;;;;;;;;;;;;;;;;;5072193;28;19999;-72
2022/02/04 17:31:08;;;;;;;;;;;;;;;;;;5073731;28;19911;-72
2022/02/04 17:33:34;;;;;;;;;;;;;;;;;;5073861;28;19912;-72
2022/02/04 17:36:00;;;;;;;;;;;;;;;;;;5072303;28;19905;-72
2022/02/04 17:38:29;;;;;;;;;;;;;;;;;;5073589;28;19904;-72
2022/02/04 17:40:57;;;;;;;;;;;;;;;;;;5072246;28;19908;-72
2022/02/04 17:43:23;;;;;;;;;;;;;;;;;;5072295;28;19911;-73
2022/02/04 17:45:51;;;;;;;;;;;;;;;;;;5073653;28;20418;-73
2022/02/04 17:48:24;;;;;;;;;;;;;;;;;;5073405;28;20261;-73
2022/02/04 17:53:40;;;;;;;;;;;;;;;;;;5073414;28;19954;-72
2022/02/04 17:56:19;;;;;;;;;;;;;;;;;;5073426;28;19905;-72
2022/02/04 17:59:03;;;;;;;;;;;;;;;;;;5073396;28;19926;-72
2022/02/04 18:01:53;;;;;;;;;;;;;;;;;;5076751;28;19958;-72
2022/02/04 18:07:15;;;;;;;;;;;;;;;;;;5077533;28;19912;-73
2022/02/04 18:09:42;;;;;;;;;;;;;;;;;;5077304;28;20026;-73
2022/02/04 18:12:08;;;;;;;;;;;;;;;;;;5076019;28;19912;-73
2022/02/04 18:14:35;;;;;;;;;;;;;;;;;;5077371;28;19908;-73
2022/02/04 18:17:01;;;;;;;;;;;;;;;;;;5077199;28;19904;-73
2022/02/04 18:19:28;;;;;;;;;;;;;;;;;;5077190;28;19904;-73
2022/02/04 18:21:54;;;;;;;;;;;;;;;;;;5077211;28;19904;-73
2022/02/04 18:24:21;;;;;;;;;;;;;;;;;;5077106;28;19905;-73
2022/02/04 18:26:48;;;;;;;;;;;;;;;;;;5075719;28;19904;-73
2022/02/04 18:29:14;;;;;;;;;;;;;;;;;;5075556;28;19908;-74
2022/02/04 18:31:41;;;;;;;;;;;;;;;;;;5077034;28;20254;-73
2022/02/04 18:34:10;;;;;;;;;;;;;;;;;;5076889;28;19904;-72
2022/02/04 18:36:36;;;;;;;;;;;;;;;;;;5076912;28;19904;-72
2022/02/04 18:39:29;;;;;;;;;;;;;;;;;;5076809;28;19911;-72
2022/02/04 18:44:42;;;;;;;;;;;;;;;;;;5076695;28;19908;-72
2022/02/04 18:47:22;;;;;;;;;;;;;;;;;;5076677;28;19911;-73
2022/02/04 18:49:58;;;;;;;;;;;;;;;;;;5076606;28;19908;-73
2022/02/04 18:55:57;;;;;;;;;;;;;;;;;;5076306;28;19955;-73
2022/02/04 18:57:52;;;;;;;;;;;;;;;;;;5073169;28;19947;-73
2022/02/04 19:00:20;;;;;;;;;;;;;;;;;;5076370;28;19905;-73
2022/02/04 19:02:51;;;;;;;;;;;;;;;;;;5075070;28;19991;-72
2022/02/04 19:05:23;;;;;;;;;;;;;;;;;;5076399;28;20364;-73
2022/02/04 19:08:05;;;;;;;;;;;;;;;;;;5076186;28;19912;-72
2022/02/04 19:10:34;;;;;;;;;;;;;;;;;;5075819;28;19999;-72
2022/02/04 19:13:17;;;;;;;;;;;;;;;;;;5075882;28;19971;-72
2022/02/04 19:16:08;;;;;;;;;;;;;;;;;;5075906;28;19919;-72
2022/02/04 19:18:56;;;;;;;;;;;;;;;;;;5074554;28;19944;-72
2022/02/04 19:21:50;;;;;;;;;;;;;;;;;;5075676;28;19905;-73
2022/02/04 19:24:07;;;;;;;;;;;;;;;;;;5075331;28;20369;-73
2022/02/04 19:26:33;;;;;;;;;;;;;;;;;;5074434;28;19953;-73
2022/02/04 19:29:00;;;;;;;;;;;;;;;;;;5075662;28;19912;-73
2022/02/04 19:31:26;;;;;;;;;;;;;;;;;;5074468;28;19904;-73
2022/02/04 19:33:53;;;;;;;;;;;;;;;;;;5074403;28;19911;-73
2022/02/04 19:36:19;;;;;;;;;;;;;;;;;;5074263;28;19905;-73
2022/02/04 19:38:46;;;;;;;;;;;;;;;;;;5074186;28;20353;-73
2022/02/04 19:41:17;;;;;;;;;;;;;;;;;;5075571;28;19904;-73
2022/02/04 19:43:47;;;;;;;;;;;;;;;;;;5075434;28;20345;-73
2022/02/04 19:46:17;;;;;;;;;;;;;;;;;;5075544;28;19908;-72
2022/02/04 19:48:49;;;;;;;;;;;;;;;;;;5075307;28;20369;-72
2022/02/04 19:51:32;;;;;;;;;;;;;;;;;;5075411;28;20254;-73
2022/02/04 20:24:46;;;;;;;;;;;;;;;;;;5073868;28;19923;-73
2022/02/04 20:27:04;;;;;;;;;;;;;;;;;;5074491;28;19944;-73
2022/02/04 20:29:30;;;;;;;;;;;;;;;;;;5074488;28;19908;-73
2022/02/04 20:31:57;;;;;;;;;;;;;;;;;;5074538;28;19974;-74
2022/02/04 20:34:23;;;;;;;;;;;;;;;;;;5074412;28;20368;-72
2022/02/04 20:36:50;;;;;;;;;;;;;;;;;;5074541;28;20359;-72
2022/02/04 20:39:19;;;;;;;;;;;;;;;;;;5074236;28;20361;-72
2022/02/04 20:41:46;;;;;;;;;;;;;;;;;;5074342;28;19936;-73
2022/02/04 20:44:12;;;;;;;;;;;;;;;;;;5072896;28;19905;-72
2022/02/04 20:46:38;;;;;;;;;;;;;;;;;;5072949;28;19935;-73
2022/02/04 20:49:08;;;;;;;;;;;;;;;;;;5074125;28;19912;-73
2022/02/04 20:51:35;;;;;;;;;;;;;;;;;;5074167;28;19908;-72
2022/02/04 20:54:01;;;;;;;;;;;;;;;;;;5073932;28;19944;-72
2022/02/04 20:56:27;;;;;;;;;;;;;;;;;;5074148;28;19930;-73
2022/02/04 20:58:54;;;;;;;;;;;;;;;;;;5074095;28;19912;-73
2022/02/04 21:01:23;;;;;;;;;;;;;;;;;;5073982;28;19904;-73
2022/02/04 21:03:49;;;;;;;;;;;;;;;;;;5072522;28;19910;-73
2022/02/04 21:06:32;;;;;;;;;;;;;;;;;;5073681;28;19997;-72
2022/02/04 21:16:58;;;;;;;;;;;;;;;;;;5073764;28;19908;-72
2022/02/04 21:19:24;;;;;;;;;;;;;;;;;;5073764;28;19904;-73
2022/02/04 21:21:51;;;;;;;;;;;;;;;;;;5073510;28;19904;-72
2022/02/04 21:24:17;;;;;;;;;;;;;;;;;;5072335;28;19904;-72
2022/02/04 21:26:44;;;;;;;;;;;;;;;;;;5073625;28;20380;-73
2022/02/04 21:29:11;;;;;;;;;;;;;;;;;;5072226;28;19908;-73
2022/02/04 21:31:42;;;;;;;;;;;;;;;;;;5073413;28;19987;-73
2022/02/04 21:36:59;;;;;;;;;;;;;;;;;;5073403;28;20423;-72
2022/02/04 21:39:25;;;;;;;;;;;;;;;;;;5073302;28;20357;-73
2022/02/04 21:41:52;;;;;;;;;;;;;;;;;;5073329;28;19961;-73
2022/02/04 21:44:18;;;;;;;;;;;;;;;;;;5073481;28;20377;-73
2022/02/04 21:46:45;;;;;;;;;;;;;;;;;;5071890;28;19962;-73
2022/02/04 21:49:11;;;;;;;;;;;;;;;;;;5073334;28;19915;-73
2022/02/04 21:51:38;;;;;;;;;;;;;;;;;;5073123;28;20284;-75
2022/02/04 21:54:04;;;;;;;;;;;;;;;;;;5073287;28;20024;-73
2022/02/04 21:56:31;;;;;;;;;;;;;;;;;;5071767;28;19904;-73
2022/02/04 21:58:57;;;;;;;;;;;;;;;;;;5072942;28;19905;-73
2022/02/04 22:01:24;;;;;;;;;;;;;;;;;;5072788;28;19904;-74
2022/02/04 22:03:51;;;;;;;;;;;;;;;;;;5072995;28;19905;-73
2022/02/04 22:06:17;;;;;;;;;;;;;;;;;;5072876;28;19912;-73
2022/02/04 22:08:58;;;;;;;;;;;;;;;;;;5073215;28;19912;-73
2022/02/04 22:16:55;;;;;;;;;;;;;;;;;;5073001;28;19905;-74
2022/02/04 22:22:20;;;;;;;;;;;;;;;;;;5073117;28;19999;-75
2022/02/04 22:24:47;;;;;;;;;;;;;;;;;;5073070;28;19910;-74
2022/02/04 22:27:15;;;;;;;;;;;;;;;;;;5072949;28;19912;-74
2022/02/04 22:43:23;;;;;;;;;;;;;;;;;;5072862;28;20315;-74
2022/02/04 22:50:34;;;;;;;;;;;;;;;;;;5076510;28;19952;-74
2022/02/04 22:53:26;;;;;;;;;;;;;;;;;;5075213;28;20332;-74
2022/02/04 22:58:38;;;;;;;;;;;;;;;;;;5076299;28;20365;-74
2022/02/04 23:01:04;;;;;;;;;;;;;;;;;;5076306;28;19912;-74
2022/02/04 23:03:38;;;;;;;;;;;;;;;;;;5076129;28;19904;-74
2022/02/04 23:06:04;;;;;;;;;;;;;;;;;;5076278;28;19912;-74
2022/02/04 23:08:33;;;;;;;;;;;;;;;;;;5074856;28;19911;-73
2022/02/04 23:11:02;;;;;;;;;;;;;;;;;;5076236;28;20002;-74
2022/02/04 23:13:44;;;;;;;;;;;;;;;;;;5076111;28;19908;-74
2022/02/04 23:16:16;;;;;;;;;;;;;;;;;;5076212;28;20425;-74
2022/02/04 23:18:53;;;;;;;;;;;;;;;;;;5076135;28;19927;-73
2022/02/04 23:21:25;;;;;;;;;;;;;;;;;;5076265;28;19905;-73
2022/02/04 23:23:55;;;;;;;;;;;;;;;;;;5076016;28;19979;-74
2022/02/04 23:26:32;;;;;;;;;;;;;;;;;;5075924;28;19932;-73
2022/02/04 23:32:30;;;;;;;;;;;;;;;;;;5075842;28;19911;-73
2022/02/04 23:46:10;;;;;;;;;;;;;;;;;;5075906;28;20018;-77